Time;durP1;ratioP1;P1;durP2;ratioP2;P2;SDS_P1;SDS_P2;PMS_P1;PMS_P2;Temp;Humidity;BMP_temperature;BMP_pressure;BME280_temperature;BME280_humidity;BME280_pressure;Samples;Min_cycle;Max_cycle;Signal;HPM_P1;HPM_P2
2022/02/21 00:00:21;;;;;;;1.52;1.07;;;;;;;6.84;75.59;98576.86;2187186;80;22215;-75
2022/02/21 00:03:23;;;;;;;2.50;1.50;;;;;;;6.83;75.61;98577.02;2188112;80;21347;-73
2022/02/21 00:06:24;;;;;;;2.25;1.25;;;;;;;6.81;75.77;98569.28;2185565;80;21559;-75
2022/02/21 00:09:26;;;;;;;2.50;1.25;;;;;;;6.81;75.86;98568.47;2188448;80;21046;-74
2022/02/21 00:12:28;;;;;;;1.20;1.07;;;;;;;6.81;75.80;98561.88;2186129;80;21024;-77
2022/02/21 00:15:35;;;;;;;1.82;1.30;;;;;;;6.81;76.01;98548.69;2188208;80;21010;-75
2022/02/21 00:18:36;;;;;;;1.70;1.20;;;;;;;6.79;76.14;98541.48;2189181;80;21535;-74
2022/02/21 00:21:38;;;;;;;1.42;1.22;;;;;;;6.77;76.14;98535.06;2187374;80;21524;-74
2022/02/21 00:24:40;;;;;;;1.87;1.17;;;;;;;6.77;76.14;98531.11;2192233;80;21108;-74
2022/02/21 00:27:44;;;;;;;1.67;1.00;;;;;;;6.77;76.14;98526.34;2206275;80;21069;-74
2022/02/21 00:30:46;;;;;;;0.80;0.80;;;;;;;6.73;76.30;98512.20;2208097;80;21052;-74
2022/02/21 00:33:47;;;;;;;1.75;1.07;;;;;;;6.76;76.31;98513.66;2207458;80;21028;-74
2022/02/21 00:36:49;;;;;;;1.42;1.10;;;;;;;6.75;76.28;98506.73;2206439;80;21370;-75
2022/02/21 00:39:54;;;;;;;1.70;1.00;;;;;;;6.73;76.37;98496.39;2202498;80;21068;-74
2022/02/21 00:42:55;;;;;;;3.12;1.37;;;;;;;6.77;76.41;98497.34;2209057;80;21464;-75
2022/02/21 00:45:57;;;;;;;1.60;1.12;;;;;;;6.76;76.42;98480.72;2209377;80;21045;-73
2022/02/21 00:48:59;;;;;;;1.67;1.12;;;;;;;6.72;76.55;98473.65;2208079;80;21021;-77
2022/02/21 00:52:03;;;;;;;1.20;1.10;;;;;;;6.69;76.70;98473.20;2209511;80;21009;-74
2022/02/21 00:55:06;;;;;;;1.17;1.00;;;;;;;6.65;76.71;98462.22;2204643;80;22159;-75
2022/02/21 00:58:10;;;;;;;9.38;1.62;;;;;;;6.65;76.76;98459.58;2207364;80;21492;-74
2022/02/21 01:01:12;;;;;;;1.40;1.30;;;;;;;6.64;76.88;98450.02;2177198;79;21073;-75
2022/02/21 01:04:15;;;;;;;1.32;1.20;;;;;;;6.66;76.89;98449.84;2159550;80;21055;-74
2022/02/21 01:07:17;;;;;;;1.72;1.10;;;;;;;6.65;77.15;98446.40;2218797;79;21527;-75
2022/02/21 01:10:20;;;;;;;2.00;1.80;;;;;;;6.64;77.14;98434.20;2216860;79;20981;-75
2022/02/21 01:13:24;;;;;;;1.62;1.30;;;;;;;6.62;77.21;98420.41;2216910;79;21017;-76
2022/02/21 01:16:26;;;;;;;1.20;1.10;;;;;;;6.60;77.31;98410.55;2212075;79;21028;-75
2022/02/21 01:19:32;;;;;;;3.15;1.10;;;;;;;6.58;77.37;98405.95;2213647;79;21080;-77
2022/02/21 01:22:34;;;;;;;2.05;1.40;;;;;;;6.58;77.44;98404.62;2183140;79;21020;-74
2022/02/21 01:25:36;;;;;;;2.72;1.50;;;;;;;6.58;77.50;98395.41;2177973;79;21065;-74
2022/02/21 01:28:38;;;;;;;2.62;1.77;;;;;;;6.60;77.62;98391.28;2131293;82;21029;-74
2022/02/21 01:31:39;;;;;;;2.02;1.40;;;;;;;6.61;77.50;98383.69;2147266;82;21069;-74
2022/02/21 01:34:43;;;;;;;1.50;1.00;;;;;;;6.64;77.59;98370.14;2148596;81;21053;-77
2022/02/21 01:37:45;;;;;;;1.35;1.00;;;;;;;6.63;77.58;98361.42;2172353;81;21049;-75
2022/02/21 01:40:47;;;;;;;1.30;1.20;;;;;;;6.65;77.65;98357.30;2172921;81;21035;-74
2022/02/21 01:44:02;;;;;;;1.55;1.05;;;;;;;6.66;77.60;98350.50;2171530;81;21591;-74
2022/02/21 01:47:07;;;;;;;2.10;1.07;;;;;;;6.67;77.59;98350.00;2132889;82;21001;-74
2022/02/21 01:50:09;;;;;;;3.37;1.40;;;;;;;6.70;77.63;98337.77;2145910;82;21629;-78
2022/02/21 01:53:12;;;;;;;1.17;1.00;;;;;;;6.71;77.64;98334.95;2146114;82;21320;-74
2022/02/21 01:56:16;;;;;;;2.05;1.00;;;;;;;6.71;77.67;98328.37;2150059;82;21619;-72
2022/02/21 01:59:19;;;;;;;2.80;1.22;;;;;;;6.73;77.74;98321.10;2168713;81;21069;-73
2022/02/21 02:02:24;;;;;;;1.40;1.02;;;;;;;6.74;77.65;98313.50;2149837;82;21046;-73
2022/02/21 02:05:25;;;;;;;0.90;0.90;;;;;;;6.74;77.83;98281.87;2131703;82;21068;-74
2022/02/21 02:08:27;;;;;;;1.07;0.90;;;;;;;6.76;77.68;98268.52;2140658;82;21033;-72
2022/02/21 02:11:36;;;;;;;3.15;1.12;;;;;;;6.76;77.70;98257.97;2173536;81;21028;-73
2022/02/21 02:14:42;;;;;;;0.85;0.80;;;;;;;6.78;77.70;98237.48;2170134;81;21085;-74
2022/02/21 02:17:44;;;;;;;2.25;0.60;;;;;;;6.79;77.82;98222.01;2171738;81;20986;-74
2022/02/21 02:20:45;;;;;;;1.10;0.93;;;;;;;6.80;77.82;98223.63;2170602;81;21005;-74
2022/02/21 02:23:52;;;;;;;1.12;1.00;;;;;;;6.80;77.79;98221.50;2171790;81;21655;-73
2022/02/21 02:26:56;;;;;;;0.85;0.80;;;;;;;6.80;77.77;98220.18;2150128;79;21021;-73
2022/02/21 02:29:59;;;;;;;1.12;0.90;;;;;;;6.79;77.74;98207.51;2182673;79;21037;-73
2022/02/21 02:33:03;;;;;;;1.15;0.62;;;;;;;6.80;77.66;98204.36;2181457;79;21049;-73
2022/02/21 02:36:08;;;;;;;1.42;1.00;;;;;;;6.82;77.69;98195.77;2179259;79;21075;-74
2022/02/21 02:39:12;;;;;;;0.82;0.80;;;;;;;6.84;77.55;98180.08;2181075;79;20989;-74
2022/02/21 02:42:15;;;;;;;0.80;0.80;;;;;;;6.85;77.49;98179.58;2180928;79;21084;-73
2022/02/21 02:45:21;;;;;;;2.40;0.93;;;;;;;6.85;77.43;98174.30;2181299;79;21016;-76
2022/02/21 02:48:28;;;;;;;0.72;0.70;;;;;;;6.82;77.42;98175.49;2182219;79;21072;-73
2022/02/21 02:51:27;;;;;;;0.82;0.82;;;;;;;6.79;77.32;98179.83;2142023;81;21603;-74
2022/02/21 02:54:30;;;;;;;1.82;1.00;;;;;;;6.82;77.36;98176.00;2168759;81;21001;-72
2022/02/21 02:57:32;;;;;;;0.90;0.90;;;;;;;6.83;77.25;98152.58;2157596;81;21140;-73
2022/02/21 03:00:34;;;;;;;2.70;1.00;;;;;;;6.87;77.14;98143.27;2176809;80;20979;-78
2022/02/21 03:03:38;;;;;;;0.85;0.85;;;;;;;6.86;77.18;98134.55;2176512;80;21006;-73
2022/02/21 03:06:39;;;;;;;1.00;0.80;;;;;;;6.91;76.96;98131.34;2185325;79;21060;-74
2022/02/21 03:09:41;;;;;;;1.42;0.70;;;;;;;6.91;76.83;98116.85;2175248;80;21053;-73
2022/02/21 03:12:43;;;;;;;1.12;0.90;;;;;;;6.95;76.71;98124.67;2158022;81;21013;-75
2022/02/21 03:15:45;;;;;;;2.02;1.20;;;;;;;6.98;76.59;98117.69;2155381;81;21074;-74
2022/02/21 03:18:47;;;;;;;2.60;1.12;;;;;;;7.02;76.44;98103.64;2182430;79;21570;-78
2022/02/21 03:21:51;;;;;;;1.52;0.98;;;;;;;7.07;76.39;98102.06;2212074;79;21374;-77
2022/02/21 03:24:53;;;;;;;0.62;0.57;;;;;;;7.08;76.23;98094.95;2185931;79;21041;-73
2022/02/21 03:27:54;;;;;;;1.85;0.90;;;;;;;7.11;76.16;98088.78;2212236;80;21041;-73
2022/02/21 03:30:56;;;;;;;3.77;1.12;;;;;;;7.12;76.12;98079.87;2213213;79;21500;-77
2022/02/21 03:34:01;;;;;;;0.85;0.85;;;;;;;7.13;76.09;98081.50;2158226;81;21015;-77
2022/02/21 03:37:06;;;;;;;1.95;0.82;;;;;;;7.14;76.13;98072.56;2182479;79;21020;-73
2022/02/21 03:40:09;;;;;;;4.12;1.10;;;;;;;7.15;76.16;98061.50;2181339;79;21037;-75
2022/02/21 03:43:14;;;;;;;1.60;0.90;;;;;;;7.16;76.17;98048.14;2190440;79;21121;-76
2022/02/21 03:46:17;;;;;;;0.93;0.93;;;;;;;7.12;76.33;98044.27;2214611;79;21088;-73
2022/02/21 03:49:23;;;;;;;1.90;0.70;;;;;;;7.08;76.28;98048.30;2209946;80;21092;-75
2022/02/21 03:52:25;;;;;;;1.87;0.90;;;;;;;7.05;76.46;98047.37;2215558;79;21040;-73
2022/02/21 03:55:26;;;;;;;2.70;1.30;;;;;;;7.03;76.60;98045.42;2214323;79;21036;-73
2022/02/21 03:58:28;;;;;;;2.25;1.02;;;;;;;7.02;76.55;98035.09;2177698;80;21418;-76
2022/02/21 04:01:30;;;;;;;1.72;1.25;;;;;;;7.02;76.71;98037.21;2163343;81;21084;-75
2022/02/21 04:04:32;;;;;;;1.90;1.00;;;;;;;6.99;76.78;98031.52;2185188;79;21481;-73
2022/02/21 04:07:35;;;;;;;5.15;1.25;;;;;;;6.97;76.78;98026.42;2144238;81;21012;-73
2022/02/21 04:10:36;;;;;;;1.90;1.07;;;;;;;6.94;77.17;98017.08;2183991;79;21578;-73
2022/02/21 04:13:49;;;;;;;2.22;1.00;;;;;;;6.93;77.06;98016.78;2182239;79;21527;-73
2022/02/21 04:16:51;;;;;;;1.67;1.00;;;;;;;6.93;76.94;98002.28;2174578;80;21092;-74
2022/02/21 04:19:54;;;;;;;5.83;1.35;;;;;;;6.95;76.89;97987.57;2172589;80;21041;-74
2022/02/21 04:22:57;;;;;;;3.37;1.42;;;;;;;7.00;76.81;97993.08;2143670;81;21080;-72
2022/02/21 04:26:00;;;;;;;2.65;1.30;;;;;;;7.04;76.72;97991.69;2176550;79;21575;-73
2022/02/21 04:29:05;;;;;;;2.55;1.37;;;;;;;7.07;76.53;97984.70;2178315;80;21634;-73
2022/02/21 04:32:08;;;;;;;3.40;1.25;;;;;;;7.13;76.44;97979.16;2178546;80;21543;-73
2022/02/21 04:35:11;;;;;;;2.80;1.30;;;;;;;7.17;76.25;97969.31;2140604;81;21056;-77
2022/02/21 04:38:13;;;;;;;1.42;0.85;;;;;;;7.25;75.77;97960.93;2134336;82;21047;-73
2022/02/21 04:41:18;;;;;;;3.22;1.17;;;;;;;7.32;75.65;97959.11;2132299;82;21008;-73
2022/02/21 04:44:20;;;;;;;3.35;1.20;;;;;;;7.38;75.22;97943.31;2188056;80;21041;-72
2022/02/21 04:47:24;;;;;;;2.12;0.90;;;;;;;7.44;75.03;97941.70;2190881;80;21021;-73
2022/02/21 04:50:28;;;;;;;1.62;1.07;;;;;;;7.47;74.77;97943.94;2166496;81;21025;-74
2022/02/21 04:53:30;;;;;;;2.25;1.30;;;;;;;7.51;74.45;97934.60;2189983;80;21026;-74
2022/02/21 04:56:31;;;;;;;2.98;1.20;;;;;;;7.56;74.52;97932.69;2187466;80;21329;-72
2022/02/21 04:59:35;;;;;;;2.62;1.12;;;;;;;7.57;74.27;97928.55;2190384;80;21032;-72
2022/02/21 05:02:36;;;;;;;2.10;1.10;;;;;;;7.60;73.96;97921.55;2188718;80;21488;-73
2022/02/21 05:05:38;;;;;;;2.47;1.52;;;;;;;7.62;73.70;97916.86;2189663;80;21072;-73
2022/02/21 05:08:41;;;;;;;1.80;1.05;;;;;;;7.62;73.84;97914.22;2180965;80;21756;-72
2022/02/21 05:11:43;;;;;;;2.17;1.17;;;;;;;7.63;73.70;97905.30;2166401;81;21594;-75
2022/02/21 05:14:47;;;;;;;2.42;1.20;;;;;;;7.66;73.59;97900.61;2187273;80;21028;-73
2022/02/21 05:17:52;;;;;;;3.45;0.85;;;;;;;7.67;73.51;97899.11;2190192;80;21058;-73
2022/02/21 05:20:59;;;;;;;3.60;1.10;;;;;;;7.68;73.42;97892.00;2161904;80;21064;-74
2022/02/21 05:24:00;;;;;;;2.85;1.10;;;;;;;7.67;73.36;97887.74;2188793;80;21010;-74
2022/02/21 05:27:05;;;;;;;1.87;1.00;;;;;;;7.64;73.29;97887.13;2185410;79;21010;-73
2022/02/21 05:30:09;;;;;;;1.22;0.98;;;;;;;7.67;73.05;97877.19;2184052;80;21016;-72
2022/02/21 05:33:13;;;;;;;2.47;1.17;;;;;;;7.70;73.05;97884.18;2137528;81;21077;-73
2022/02/21 05:36:14;;;;;;;1.22;0.90;;;;;;;7.73;72.99;97873.73;2184701;80;21587;-72
2022/02/21 05:39:16;;;;;;;1.12;1.02;;;;;;;7.73;73.00;97884.28;2185723;80;21080;-73
2022/02/21 05:42:22;;;;;;;2.83;1.52;;;;;;;7.73;72.83;97867.94;2192060;80;22185;-73
2022/02/21 05:45:24;;;;;;;3.08;1.12;;;;;;;7.73;72.79;97870.58;2185050;80;21049;-75
2022/02/21 05:48:25;;;;;;;2.55;1.17;;;;;;;7.71;72.74;97866.51;2191518;80;21033;-75
2022/02/21 05:51:27;;;;;;;2.87;1.25;;;;;;;7.68;72.75;97865.09;2177102;80;21627;-73
2022/02/21 05:54:29;;;;;;;1.42;1.10;;;;;;;7.69;72.55;97863.28;2187944;80;21024;-74
2022/02/21 05:57:33;;;;;;;1.45;0.88;;;;;;;7.69;72.61;97858.81;2135255;82;21557;-75
2022/02/21 06:00:36;;;;;;;3.65;1.27;;;;;;;7.73;72.64;97861.84;2194188;80;21049;-72
2022/02/21 06:03:38;;;;;;;4.95;1.00;;;;;;;7.75;72.50;97862.47;2175660;80;21075;-74
2022/02/21 06:06:41;;;;;;;2.62;1.17;;;;;;;7.76;72.46;97858.80;2182800;80;21591;-74
2022/02/21 06:09:50;;;;;;;1.72;0.98;;;;;;;7.78;72.22;97860.73;2168978;80;21040;-74
2022/02/21 06:12:53;;;;;;;2.35;1.00;;;;;;;7.79;72.30;97854.43;2185269;80;20977;-75
2022/02/21 06:15:56;;;;;;;1.30;1.00;;;;;;;7.77;72.18;97857.77;2183816;80;21017;-73
2022/02/21 06:19:00;;;;;;;0.98;0.90;;;;;;;7.79;72.15;97862.34;2184739;80;21077;-74
2022/02/21 06:22:02;;;;;;;3.50;1.15;;;;;;;7.85;71.90;97858.89;2190793;80;21021;-74
2022/02/21 06:25:07;;;;;;;1.98;1.22;;;;;;;7.86;72.11;97858.70;2182510;80;21076;-73
2022/02/21 06:28:11;;;;;;;2.67;1.15;;;;;;;7.86;72.27;97857.89;2204000;80;21053;-73
2022/02/21 06:31:13;;;;;;;1.75;1.30;;;;;;;7.85;72.23;97865.48;2211148;80;21008;-73
2022/02/21 06:34:14;;;;;;;5.58;1.12;;;;;;;7.85;72.34;97857.56;2205991;80;21132;-73
2022/02/21 06:37:21;;;;;;;3.75;0.90;;;;;;;7.84;72.31;97855.44;2183276;79;21700;-74
2022/02/21 06:40:24;;;;;;;0.85;0.80;;;;;;;7.87;72.21;97862.14;2173498;80;21009;-76
2022/02/21 06:43:25;;;;;;;1.07;0.98;;;;;;;7.89;72.27;97872.00;2215087;79;21009;-73
2022/02/21 06:46:27;;;;;;;3.30;1.80;;;;;;;7.92;72.24;97887.44;2215814;79;21079;-74
2022/02/21 06:49:28;;;;;;;2.70;1.37;;;;;;;7.95;72.22;97913.43;2214602;79;21005;-73
2022/02/21 06:52:31;;;;;;;4.15;1.67;;;;;;;7.95;72.76;97910.79;2186829;78;21028;-75
2022/02/21 06:55:33;;;;;;;2.92;0.80;;;;;;;7.91;73.35;97968.16;2143600;81;21130;-73
2022/02/21 06:58:34;;;;;;;0.88;0.78;;;;;;;7.72;73.71;97997.50;2145111;81;21040;-74
2022/02/21 07:01:38;;;;;;;0.93;0.80;;;;;;;7.53;71.56;97980.09;2210585;80;21033;-74
2022/02/21 07:04:43;;;;;;;2.45;0.80;;;;;;;7.35;71.15;97958.23;2182343;79;21036;-74
2022/02/21 07:07:45;;;;;;;0.88;0.85;;;;;;;7.19;70.98;97954.11;2213257;80;21036;-74
2022/02/21 07:10:46;;;;;;;1.32;0.68;;;;;;;7.13;70.42;97973.87;2167778;80;21799;-75
2022/02/21 07:13:48;;;;;;;2.15;0.88;;;;;;;7.10;70.14;97969.00;2183741;79;21044;-73
2022/02/21 07:16:51;;;;;;;1.00;0.90;;;;;;;7.14;70.04;97974.98;2168575;81;21020;-72
2022/02/21 07:19:56;;;;;;;1.40;1.30;;;;;;;7.16;69.37;97984.84;2186285;79;21108;-73
2022/02/21 07:22:59;;;;;;;1.82;1.00;;;;;;;7.18;69.94;97989.42;2214342;79;21519;-75
2022/02/21 07:26:04;;;;;;;3.62;1.10;;;;;;;7.19;68.98;98002.91;2216050;79;21052;-74
2022/02/21 07:29:10;;;;;;;1.95;0.93;;;;;;;7.22;69.65;98019.36;2213597;79;21066;-72
2022/02/21 07:32:14;;;;;;;1.20;1.00;;;;;;;7.24;69.41;98034.48;2146267;81;21546;-73
2022/02/21 07:35:18;;;;;;;5.45;1.20;;;;;;;7.26;69.43;98044.31;2216532;79;21044;-72
2022/02/21 07:38:23;;;;;;;6.45;1.40;;;;;;;7.28;69.14;98044.44;2213642;79;21024;-73
2022/02/21 07:41:30;;;;;;;1.27;0.70;;;;;;;7.26;68.74;98050.91;2215277;79;21004;-73
2022/02/21 07:44:34;;;;;;;1.95;1.05;;;;;;;7.29;67.11;98042.61;2210438;79;21013;-75
2022/02/21 07:47:50;;;;;;;1.25;0.85;;;;;;;7.30;67.84;98042.94;2214533;79;21005;-73
2022/02/21 07:50:55;;;;;;;3.20;1.37;;;;;;;7.26;67.74;98068.06;2146225;81;22340;-72
2022/02/21 07:54:02;;;;;;;1.40;1.10;;;;;;;7.26;67.06;98069.38;2205374;79;20979;-73
2022/02/21 07:57:06;;;;;;;1.98;1.37;;;;;;;7.22;66.51;98062.37;2214773;79;21457;-80
2022/02/21 08:00:12;;;;;;;3.58;1.20;;;;;;;7.17;67.03;98066.90;2211867;79;21495;-72
2022/02/21 08:03:22;;;;;;;1.87;0.70;;;;;;;7.12;66.25;98064.06;2216629;79;20997;-73
2022/02/21 08:06:21;;;;;;;1.15;1.00;;;;;;;7.04;64.91;98068.64;2210075;79;21036;-72
2022/02/21 08:09:29;;;;;;;3.05;1.30;;;;;;;6.94;64.55;98080.87;2214053;79;20988;-72
2022/02/21 08:12:32;;;;;;;1.72;1.07;;;;;;;6.84;65.30;98090.45;2210863;79;21848;-73
2022/02/21 08:15:39;;;;;;;1.27;1.00;;;;;;;6.74;65.12;98086.81;2157280;81;21020;-79
2022/02/21 08:18:40;;;;;;;2.72;1.60;;;;;;;6.67;65.09;98080.70;2182263;79;21507;-75
2022/02/21 08:21:47;;;;;;;2.92;1.07;;;;;;;6.61;64.50;98076.67;2178724;79;21048;-74
2022/02/21 08:24:54;;;;;;;1.27;1.02;;;;;;;6.56;65.54;98083.85;2159320;81;21057;-74
2022/02/21 08:27:55;;;;;;;2.15;1.10;;;;;;;6.53;64.97;98076.30;2161427;81;21031;-74
2022/02/21 08:31:01;;;;;;;2.42;1.35;;;;;;;6.50;65.00;98062.19;2167799;81;21056;-74
2022/02/21 08:34:04;;;;;;;1.75;1.17;;;;;;;6.45;65.37;98072.00;2186447;81;21038;-76
2022/02/21 08:37:08;;;;;;;3.15;1.17;;;;;;;6.40;64.95;98072.27;2186163;81;21035;-74
2022/02/21 08:40:14;;;;;;;2.10;1.30;;;;;;;6.37;65.12;98084.50;2166424;81;21052;-75
2022/02/21 08:43:18;;;;;;;1.67;1.10;;;;;;;6.33;65.42;98084.04;2163240;81;20979;-75
2022/02/21 08:46:21;;;;;;;1.75;1.02;;;;;;;6.31;65.58;98093.97;2140934;81;21034;-74
2022/02/21 08:49:25;;;;;;;3.40;1.25;;;;;;;6.27;64.94;98096.65;2189198;81;22290;-75
2022/02/21 08:52:27;;;;;;;1.55;1.22;;;;;;;6.21;65.35;98108.75;2170592;81;21535;-74
2022/02/21 08:55:34;;;;;;;2.75;1.20;;;;;;;6.14;65.11;98111.84;2187326;80;21031;-77
2022/02/21 08:58:38;;;;;;;1.77;1.20;;;;;;;6.09;65.60;98141.05;2165352;81;21549;-74
2022/02/21 09:01:43;;;;;;;1.52;1.20;;;;;;;6.02;65.41;98116.75;2183247;80;21016;-75
2022/02/21 09:04:48;;;;;;;2.52;1.37;;;;;;;5.99;65.13;98113.18;2166756;81;21044;-79
2022/02/21 09:07:56;;;;;;;2.65;1.80;;;;;;;6.02;65.57;98138.32;2187349;80;21065;-78
2022/02/21 09:11:02;;;;;;;4.35;1.77;;;;;;;6.07;65.28;98151.75;2165382;81;21028;-73
2022/02/21 09:14:06;;;;;;;5.70;2.00;;;;;;;6.12;64.93;98134.09;2166759;81;21025;-75
2022/02/21 09:17:08;;;;;;;3.87;2.00;;;;;;;6.16;65.52;98140.59;2159449;80;21032;-75
2022/02/21 09:20:15;;;;;;;3.33;1.40;;;;;;;6.21;65.49;98146.94;2165666;81;21124;-74
2022/02/21 09:23:20;;;;;;;3.12;1.45;;;;;;;6.24;65.42;98166.31;2186787;81;20966;-77
2022/02/21 09:26:27;;;;;;;2.42;1.30;;;;;;;6.24;65.46;98176.84;2126794;82;21453;-76
2022/02/21 09:29:29;;;;;;;3.00;1.20;;;;;;;6.25;65.87;98200.89;2161743;81;21662;-80
2022/02/21 09:32:36;;;;;;;3.22;1.30;;;;;;;6.23;65.87;98209.47;2181837;79;21048;-77
2022/02/21 09:35:37;;;;;;;2.33;1.80;;;;;;;6.24;66.12;98207.14;2172408;80;21021;-76
2022/02/21 09:38:42;;;;;;;4.53;2.10;;;;;;;6.25;66.43;98232.97;2187577;79;21011;-75
2022/02/21 09:41:45;;;;;;;6.53;3.25;;;;;;;6.23;66.54;98225.77;2217926;79;21044;-76
2022/02/21 09:44:49;;;;;;;8.10;3.25;;;;;;;6.21;66.12;98239.11;2218223;79;21594;-76
2022/02/21 09:47:52;;;;;;;6.50;1.67;;;;;;;6.22;66.63;98242.09;2213448;79;21033;-74
2022/02/21 09:51:02;;;;;;;6.12;2.37;;;;;;;6.23;66.69;98267.41;2142942;81;21026;-74
2022/02/21 09:54:04;;;;;;;3.40;1.72;;;;;;;6.24;66.46;98270.86;2161573;81;21104;-76
2022/02/21 09:57:08;;;;;;;4.85;1.67;;;;;;;6.22;65.61;98251.30;2179546;80;21033;-77
2022/02/21 10:00:11;;;;;;;3.67;1.50;;;;;;;6.23;65.97;98268.73;2206376;80;21052;-78
2022/02/21 10:03:34;;;;;;;4.72;1.40;;;;;;;6.23;65.73;98284.53;2207365;80;21654;-80
2022/02/21 10:06:38;;;;;;;7.83;1.25;;;;;;;6.21;65.22;98293.11;2207982;80;21040;-79
2022/02/21 10:09:45;;;;;;;2.40;1.40;;;;;;;6.17;64.81;98272.10;2205292;80;21060;-83
2022/02/21 10:12:58;;;;;;;3.72;1.42;;;;;;;6.11;64.52;98280.73;2208509;80;21037;-74
2022/02/21 10:16:04;;;;;;;2.62;1.60;;;;;;;6.03;64.84;98289.54;2203532;80;21013;-77
2022/02/21 10:19:38;;;;;;;4.43;1.87;;;;;;;5.87;64.45;98296.77;2187700;80;22433;-75
2022/02/21 10:22:42;;;;;;;2.45;1.12;;;;;;;5.72;65.20;98321.27;2208656;80;21588;-74
2022/02/21 10:25:59;;;;;;;4.37;1.15;;;;;;;5.48;65.82;98308.33;2208264;80;21017;-76
2022/02/21 10:29:07;;;;;;;4.60;1.85;;;;;;;5.19;66.95;98313.83;2197366;80;20997;-76
2022/02/21 10:32:15;;;;;;;4.72;1.35;;;;;;;5.01;67.41;98300.15;2186649;80;21600;-76
2022/02/21 10:35:30;;;;;;;4.25;1.92;;;;;;;4.92;68.53;98304.65;2186894;80;20982;-76
2022/02/21 10:38:42;;;;;;;4.67;1.90;;;;;;;4.90;69.20;98330.31;2189989;80;21041;-73
2022/02/21 10:41:57;;;;;;;2.45;1.40;;;;;;;4.87;69.90;98337.20;2186165;80;21070;-74
2022/02/21 10:45:17;;;;;;;3.75;1.52;;;;;;;4.83;70.52;98323.59;2191670;80;21026;-76
2022/02/21 10:48:23;;;;;;;3.00;1.60;;;;;;;4.84;70.27;98320.47;2187821;80;20989;-74
2022/02/21 10:51:34;;;;;;;4.45;1.95;;;;;;;4.91;70.63;98332.74;2186724;80;21091;-75
2022/02/21 10:54:37;;;;;;;5.95;1.82;;;;;;;5.03;71.06;98349.43;2200230;80;21009;-74
2022/02/21 10:57:47;;;;;;;7.70;1.70;;;;;;;5.07;70.46;98329.70;2187161;80;21614;-76
2022/02/21 11:00:53;;;;;;;4.97;1.98;;;;;;;5.11;69.66;98336.23;2189306;80;21073;-75
2022/02/21 11:04:00;;;;;;;3.40;1.92;;;;;;;5.17;67.40;98348.67;2185296;80;21084;-75
2022/02/21 11:07:03;;;;;;;3.55;1.65;;;;;;;5.15;67.02;98352.81;2189913;80;21492;-76
2022/02/21 11:10:07;;;;;;;3.05;1.75;;;;;;;5.15;66.84;98354.59;2194441;80;21067;-75
2022/02/21 11:13:13;;;;;;;2.95;1.30;;;;;;;5.12;66.99;98352.31;2131592;81;21010;-74
2022/02/21 11:16:15;;;;;;;4.10;1.40;;;;;;;5.10;66.63;98359.58;2146556;81;21550;-74
2022/02/21 11:19:21;;;;;;;4.22;1.50;;;;;;;5.09;66.42;98393.42;2178180;80;21061;-76
2022/02/21 11:22:25;;;;;;;3.50;1.47;;;;;;;5.15;66.54;98391.41;2185425;80;21045;-78
2022/02/21 11:26:02;;;;;;;3.25;1.40;;;;;;;5.19;66.29;98382.70;2191768;80;21053;-74
2022/02/21 11:29:45;;;;;;;3.98;1.65;;;;;;;5.18;65.81;98381.88;2187285;79;21033;-76
2022/02/21 11:33:09;;;;;;;4.58;1.72;;;;;;;5.24;66.02;98386.94;2204045;79;21543;-78
2022/02/21 11:36:20;;;;;;;7.60;1.67;;;;;;;5.26;64.75;98396.27;2217274;79;21030;-75
2022/02/21 11:39:33;;;;;;;6.05;1.70;;;;;;;5.28;64.70;98390.34;2200397;79;21037;-78
2022/02/21 11:42:41;;;;;;;3.75;1.50;;;;;;;5.34;64.55;98373.04;2195505;79;21063;-75
2022/02/21 11:45:44;;;;;;;3.08;1.57;;;;;;;5.39;63.96;98375.47;2173456;80;21096;-74
2022/02/21 11:48:59;;;;;;;3.83;1.60;;;;;;;5.45;63.17;98371.81;2139218;81;21076;-83
2022/02/21 11:52:29;;;;;;;3.17;1.65;;;;;;;5.68;64.08;98384.94;2185763;79;21054;-75
2022/02/21 11:55:43;;;;;;;4.87;1.98;;;;;;;6.09;63.24;98373.57;2183429;79;21042;-75
2022/02/21 11:58:50;;;;;;;4.40;1.37;;;;;;;6.40;61.24;98358.09;2190709;79;21030;-80
2022/02/21 12:02:14;;;;;;;4.62;1.80;;;;;;;6.58;60.81;98377.47;2182125;79;21011;-74
2022/02/21 12:05:21;;;;;;;4.47;1.82;;;;;;;6.78;61.09;98365.84;2181042;79;21583;-82
2022/02/21 12:08:37;;;;;;;4.03;1.90;;;;;;;6.74;60.32;98382.03;2188715;80;21064;-74
2022/02/21 12:11:44;;;;;;;6.45;2.52;;;;;;;6.69;58.62;98375.68;2138621;81;21099;-76
2022/02/21 12:15:13;;;;;;;6.65;1.85;;;;;;;6.72;59.31;98394.57;2148374;81;21045;-76
2022/02/21 12:18:32;;;;;;;4.55;1.95;;;;;;;6.70;57.91;98363.65;2185221;79;21076;-77
2022/02/21 12:21:34;;;;;;;5.60;2.55;;;;;;;6.69;58.28;98382.27;2184764;79;22435;-75
2022/02/21 12:25:10;;;;;;;7.03;2.58;;;;;;;6.74;58.26;98387.30;2183244;79;21069;-74
2022/02/21 12:28:18;;;;;;;6.40;2.52;;;;;;;6.91;57.71;98376.55;2137228;81;21086;-75
2022/02/21 12:31:24;;;;;;;8.33;2.85;;;;;;;7.05;56.24;98392.84;2104597;81;21069;-77
2022/02/21 12:34:30;;;;;;;6.58;1.67;;;;;;;7.13;54.95;98401.14;2153439;79;21020;-84
2022/02/21 12:37:36;;;;;;;4.72;1.82;;;;;;;7.18;55.12;98403.54;2205770;79;21014;-75
2022/02/21 12:40:44;;;;;;;7.55;1.70;;;;;;;7.25;54.75;98394.36;2148365;81;21571;-75
2022/02/21 12:43:58;;;;;;;7.53;2.60;;;;;;;7.27;55.44;98410.02;2136812;81;21115;-77
2022/02/21 12:47:05;;;;;;;4.40;1.77;;;;;;;7.35;55.25;98417.81;2202510;80;21587;-74
2022/02/21 12:50:11;;;;;;;3.35;1.67;;;;;;;7.47;54.63;98407.07;2209157;80;21044;-75
2022/02/21 12:53:17;;;;;;;3.05;1.57;;;;;;;7.53;53.10;98412.91;2207088;80;21052;-75
2022/02/21 12:56:22;;;;;;;4.92;1.32;;;;;;;7.63;53.83;98360.63;2206302;80;21024;-78
2022/02/21 12:59:30;;;;;;;5.67;1.72;;;;;;;7.48;52.75;98425.84;2207177;80;21088;-76
2022/02/21 13:02:38;;;;;;;3.75;1.60;;;;;;;7.44;53.26;98419.83;2208420;80;21072;-77
2022/02/21 13:05:40;;;;;;;2.55;1.85;;;;;;;7.50;53.62;98422.52;2207330;80;21104;-74
2022/02/21 13:08:41;;;;;;;5.67;2.00;;;;;;;7.58;54.53;98407.88;2206953;80;21037;-76
2022/02/21 13:11:47;;;;;;;4.30;1.70;;;;;;;7.55;53.75;98422.78;2204779;80;21056;-74
2022/02/21 13:14:51;;;;;;;5.75;1.70;;;;;;;7.62;53.96;98419.69;2208532;80;21566;-75
2022/02/21 13:17:56;;;;;;;6.55;1.50;;;;;;;7.68;54.42;98423.91;2207848;80;21006;-75
2022/02/21 13:21:01;;;;;;;5.28;1.40;;;;;;;7.60;54.10;98409.00;2206599;80;21494;-76
2022/02/21 13:24:07;;;;;;;2.58;1.57;;;;;;;7.44;53.33;98402.17;2204314;80;21065;-73
2022/02/21 13:27:23;;;;;;;6.53;3.17;;;;;;;7.33;53.53;98413.22;2208572;80;21057;-74
2022/02/21 13:30:30;;;;;;;7.60;2.12;;;;;;;7.29;51.69;98409.31;2191257;79;21036;-77
2022/02/21 13:33:48;;;;;;;4.40;2.22;;;;;;;7.18;52.31;98416.73;2196177;80;21025;-75
2022/02/21 13:36:57;;;;;;;5.55;2.70;;;;;;;7.12;53.16;98417.48;2192569;80;21088;-74
2022/02/21 13:40:15;;;;;;;4.65;1.67;;;;;;;7.09;52.69;98419.64;2143600;81;21155;-75
2022/02/21 13:43:23;;;;;;;10.65;4.72;;;;;;;7.01;51.44;98428.51;2185683;79;21044;-75
2022/02/21 13:46:43;;;;;;;6.28;2.30;;;;;;;6.97;51.44;98427.22;2186800;79;21649;-74
2022/02/21 13:49:47;;;;;;;4.43;1.97;;;;;;;6.97;51.74;98432.50;2194212;80;21037;-76
2022/02/21 13:52:52;;;;;;;4.40;1.47;;;;;;;7.03;52.08;98440.17;2146196;81;21140;-75
2022/02/21 13:56:09;;;;;;;3.75;1.20;;;;;;;7.05;51.20;98436.34;2188459;80;22227;-75
2022/02/21 13:59:16;;;;;;;3.15;1.55;;;;;;;6.95;50.18;98449.84;2188412;79;21668;-75
2022/02/21 14:02:26;;;;;;;4.47;1.87;;;;;;;6.98;51.68;98457.05;2189751;79;21080;-75
2022/02/21 14:05:30;;;;;;;6.50;3.00;;;;;;;7.09;50.81;98459.20;2162984;81;21002;-74
2022/02/21 14:08:52;;;;;;;7.53;3.30;;;;;;;7.18;50.48;98456.30;2161977;81;21077;-74
2022/02/21 14:11:57;;;;;;;6.65;2.62;;;;;;;7.26;50.82;98442.66;2188178;80;21096;-73
2022/02/21 14:15:06;;;;;;;4.80;1.30;;;;;;;7.29;49.21;98435.22;2196132;80;21571;-76
2022/02/21 14:18:09;;;;;;;5.00;1.90;;;;;;;7.30;47.16;98430.75;2151453;81;21040;-82
2022/02/21 14:21:14;;;;;;;3.52;1.62;;;;;;;7.22;46.51;98431.67;2159896;81;21028;-74
2022/02/21 14:24:20;;;;;;;2.02;1.20;;;;;;;7.17;47.43;98430.90;2197496;80;21136;-78
2022/02/21 14:27:21;;;;;;;3.27;1.40;;;;;;;7.11;47.89;98436.92;2141913;81;21643;-75
2022/02/21 14:30:27;;;;;;;4.17;2.20;;;;;;;7.03;47.50;98435.70;2211974;79;21324;-75
2022/02/21 14:33:31;;;;;;;3.42;1.50;;;;;;;6.89;47.93;98453.69;2186089;79;21021;-74
2022/02/21 14:36:44;;;;;;;7.80;2.30;;;;;;;6.78;48.74;98452.84;2173328;80;21686;-74
2022/02/21 14:39:43;;;;;;;4.83;1.70;;;;;;;6.66;49.47;98453.30;2177614;80;21017;-75
2022/02/21 14:42:52;;;;;;;3.47;1.75;;;;;;;6.64;49.49;98454.47;2158129;81;21501;-76